sensor_id;sensor_type;location;lat;lon;timestamp;P1;durP1;ratioP1;P2;durP2;ratioP2
31378;SDS011;61664;48.112;11.662;2023-02-26T00:01:36;1.50;;;1.40;;
31378;SDS011;61664;48.112;11.662;2023-02-26T00:04:04;1.90;;;1.60;;
31378;SDS011;61664;48.112;11.662;2023-02-26T00:06:33;1.80;;;1.70;;
31378;SDS011;61664;48.112;11.662;2023-02-26T00:09:03;1.08;;;1.02;;
31378;SDS011;61664;48.112;11.662;2023-02-26T00:11:31;1.10;;;1.10;;
31378;SDS011;61664;48.112;11.662;2023-02-26T00:13:59;2.05;;;1.13;;
31378;SDS011;61664;48.112;11.662;2023-02-26T00:16:30;1.35;;;1.05;;
31378;SDS011;61664;48.112;11.662;2023-02-26T00:19:02;1.30;;;1.05;;
31378;SDS011;61664;48.112;11.662;2023-02-26T00:21:32;1.73;;;1.63;;
31378;SDS011;61664;48.112;11.662;2023-02-26T00:24:02;1.88;;;1.65;;
31378;SDS011;61664;48.112;11.662;2023-02-26T00:26:32;1.23;;;1.23;;
31378;SDS011;61664;48.112;11.662;2023-02-26T00:29:01;2.03;;;1.88;;
31378;SDS011;61664;48.112;11.662;2023-02-26T00:31:29;1.92;;;1.73;;
31378;SDS011;61664;48.112;11.662;2023-02-26T00:33:57;1.63;;;1.52;;
31378;SDS011;61664;48.112;11.662;2023-02-26T00:42:48;1.95;;;1.85;;
31378;SDS011;61664;48.112;11.662;2023-02-26T00:45:15;2.03;;;1.83;;
31378;SDS011;61664;48.112;11.662;2023-02-26T00:50:43;1.35;;;1.25;;
31378;SDS011;61664;48.112;11.662;2023-02-26T00:54:01;1.65;;;1.55;;
31378;SDS011;61664;48.112;11.662;2023-02-26T00:56:44;1.50;;;1.40;;
31378;SDS011;61664;48.112;11.662;2023-02-26T00:59:11;1.35;;;1.27;;
31378;SDS011;61664;48.112;11.662;2023-02-26T01:01:38;1.40;;;1.30;;
31378;SDS011;61664;48.112;11.662;2023-02-26T01:04:05;1.40;;;1.30;;
31378;SDS011;61664;48.112;11.662;2023-02-26T01:06:34;1.40;;;1.30;;
31378;SDS011;61664;48.112;11.662;2023-02-26T01:09:29;3.05;;;1.33;;
31378;SDS011;61664;48.112;11.662;2023-02-26T01:12:00;1.23;;;1.20;;
31378;SDS011;61664;48.112;11.662;2023-02-26T01:14:32;1.48;;;1.38;;
31378;SDS011;61664;48.112;11.662;2023-02-26T01:17:10;1.60;;;1.50;;
31378;SDS011;61664;48.112;11.662;2023-02-26T01:25:02;1.27;;;1.27;;
31378;SDS011;61664;48.112;11.662;2023-02-26T01:27:34;1.42;;;1.33;;
31378;SDS011;61664;48.112;11.662;2023-02-26T01:30:02;2.03;;;1.33;;
31378;SDS011;61664;48.112;11.662;2023-02-26T01:35:41;1.35;;;1.25;;
31378;SDS011;61664;48.112;11.662;2023-02-26T01:46:48;1.30;;;1.20;;
31378;SDS011;61664;48.112;11.662;2023-02-26T01:49:27;1.35;;;1.27;;
31378;SDS011;61664;48.112;11.662;2023-02-26T01:51:57;1.15;;;1.08;;
31378;SDS011;61664;48.112;11.662;2023-02-26T01:54:34;1.00;;;1.00;;
31378;SDS011;61664;48.112;11.662;2023-02-26T01:57:05;1.33;;;1.23;;
31378;SDS011;61664;48.112;11.662;2023-02-26T01:59:39;1.20;;;1.10;;
31378;SDS011;61664;48.112;11.662;2023-02-26T02:02:13;1.27;;;1.27;;
31378;SDS011;61664;48.112;11.662;2023-02-26T02:04:47;1.05;;;0.95;;
31378;SDS011;61664;48.112;11.662;2023-02-26T02:07:16;1.00;;;1.00;;
31378;SDS011;61664;48.112;11.662;2023-02-26T02:09:44;2.00;;;1.20;;
31378;SDS011;61664;48.112;11.662;2023-02-26T02:18:20;2.17;;;1.95;;
31378;SDS011;61664;48.112;11.662;2023-02-26T02:33:45;0.90;;;0.90;;
31378;SDS011;61664;48.112;11.662;2023-02-26T02:39:27;0.85;;;0.85;;
31378;SDS011;61664;48.112;11.662;2023-02-26T02:42:02;1.02;;;0.70;;
31378;SDS011;61664;48.112;11.662;2023-02-26T02:44:37;0.73;;;0.73;;
31378;SDS011;61664;48.112;11.662;2023-02-26T02:47:10;0.60;;;0.55;;
31378;SDS011;61664;48.112;11.662;2023-02-26T02:49:56;0.93;;;0.93;;
31378;SDS011;61664;48.112;11.662;2023-02-26T02:52:39;1.55;;;0.77;;
31378;SDS011;61664;48.112;11.662;2023-02-26T02:55:32;1.00;;;0.70;;
31378;SDS011;61664;48.112;11.662;2023-02-26T02:58:10;0.70;;;0.70;;
31378;SDS011;61664;48.112;11.662;2023-02-26T03:00:47;0.65;;;0.65;;
31378;SDS011;61664;48.112;11.662;2023-02-26T03:03:31;2.42;;;0.60;;
31378;SDS011;61664;48.112;11.662;2023-02-26T03:06:21;0.52;;;0.52;;
31378;SDS011;61664;48.112;11.662;2023-02-26T03:08:49;1.17;;;0.88;;
31378;SDS011;61664;48.112;11.662;2023-02-26T03:11:18;0.75;;;0.70;;
31378;SDS011;61664;48.112;11.662;2023-02-26T03:13:46;2.20;;;0.82;;
31378;SDS011;61664;48.112;11.662;2023-02-26T03:25:07;0.75;;;0.68;;
31378;SDS011;61664;48.112;11.662;2023-02-26T03:27:48;1.02;;;0.50;;
31378;SDS011;61664;48.112;11.662;2023-02-26T03:30:33;0.70;;;0.70;;
31378;SDS011;61664;48.112;11.662;2023-02-26T03:33:28;0.73;;;0.63;;
31378;SDS011;61664;48.112;11.662;2023-02-26T03:36:25;0.60;;;0.60;;
31378;SDS011;61664;48.112;11.662;2023-02-26T03:44:26;0.70;;;0.60;;
31378;SDS011;61664;48.112;11.662;2023-02-26T03:47:02;1.10;;;0.70;;
31378;SDS011;61664;48.112;11.662;2023-02-26T03:49:35;1.73;;;0.82;;
31378;SDS011;61664;48.112;11.662;2023-02-26T03:52:10;0.60;;;0.60;;
31378;SDS011;61664;48.112;11.662;2023-02-26T03:54:47;0.93;;;0.65;;
31378;SDS011;61664;48.112;11.662;2023-02-26T03:57:38;0.93;;;0.88;;
31378;SDS011;61664;48.112;11.662;2023-02-26T04:00:05;0.80;;;0.80;;
31378;SDS011;61664;48.112;11.662;2023-02-26T04:05:26;0.55;;;0.55;;
31378;SDS011;61664;48.112;11.662;2023-02-26T04:08:02;0.60;;;0.60;;
31378;SDS011;61664;48.112;11.662;2023-02-26T04:10:32;1.10;;;0.85;;
31378;SDS011;61664;48.112;11.662;2023-02-26T04:13:23;0.80;;;0.80;;
31378;SDS011;61664;48.112;11.662;2023-02-26T04:15:50;4.32;;;1.00;;
31378;SDS011;61664;48.112;11.662;2023-02-26T04:18:17;0.77;;;0.77;;
31378;SDS011;61664;48.112;11.662;2023-02-26T04:20:44;1.30;;;0.82;;
31378;SDS011;61664;48.112;11.662;2023-02-26T04:23:11;1.30;;;0.70;;
31378;SDS011;61664;48.112;11.662;2023-02-26T04:25:38;0.95;;;0.85;;
31378;SDS011;61664;48.112;11.662;2023-02-26T04:28:05;1.05;;;0.80;;
31378;SDS011;61664;48.112;11.662;2023-02-26T04:30:32;1.38;;;0.90;;
31378;SDS011;61664;48.112;11.662;2023-02-26T04:32:59;0.70;;;0.70;;
31378;SDS011;61664;48.112;11.662;2023-02-26T04:35:26;0.68;;;0.65;;
31378;SDS011;61664;48.112;11.662;2023-02-26T04:37:53;0.80;;;0.80;;
31378;SDS011;61664;48.112;11.662;2023-02-26T04:40:19;2.67;;;0.90;;
31378;SDS011;61664;48.112;11.662;2023-02-26T04:42:49;0.98;;;0.80;;
31378;SDS011;61664;48.112;11.662;2023-02-26T04:45:16;1.20;;;1.10;;
31378;SDS011;61664;48.112;11.662;2023-02-26T04:47:43;1.25;;;0.88;;
31378;SDS011;61664;48.112;11.662;2023-02-26T04:50:10;1.00;;;0.90;;
31378;SDS011;61664;48.112;11.662;2023-02-26T04:52:37;0.77;;;0.77;;
31378;SDS011;61664;48.112;11.662;2023-02-26T04:55:04;0.73;;;0.70;;
31378;SDS011;61664;48.112;11.662;2023-02-26T04:57:32;2.33;;;1.33;;
31378;SDS011;61664;48.112;11.662;2023-02-26T04:59:59;1.05;;;0.95;;
31378;SDS011;61664;48.112;11.662;2023-02-26T05:02:26;0.60;;;0.60;;
31378;SDS011;61664;48.112;11.662;2023-02-26T05:04:53;1.42;;;0.80;;
31378;SDS011;61664;48.112;11.662;2023-02-26T05:07:20;2.25;;;1.30;;
31378;SDS011;61664;48.112;11.662;2023-02-26T05:09:47;1.00;;;1.00;;
31378;SDS011;61664;48.112;11.662;2023-02-26T05:12:14;1.35;;;0.93;;
31378;SDS011;61664;48.112;11.662;2023-02-26T05:14:41;2.17;;;0.85;;
31378;SDS011;61664;48.112;11.662;2023-02-26T05:17:08;1.10;;;1.00;;
31378;SDS011;61664;48.112;11.662;2023-02-26T05:19:35;0.77;;;0.77;;
31378;SDS011;61664;48.112;11.662;2023-02-26T05:22:01;2.72;;;1.15;;
31378;SDS011;61664;48.112;11.662;2023-02-26T05:24:29;1.33;;;1.02;;
31378;SDS011;61664;48.112;11.662;2023-02-26T05:26:56;1.00;;;0.90;;
31378;SDS011;61664;48.112;11.662;2023-02-26T05:29:23;1.48;;;0.95;;
31378;SDS011;61664;48.112;11.662;2023-02-26T05:31:49;0.90;;;0.55;;
31378;SDS011;61664;48.112;11.662;2023-02-26T05:34:16;1.45;;;0.82;;
31378;SDS011;61664;48.112;11.662;2023-02-26T05:36:43;1.13;;;1.00;;
31378;SDS011;61664;48.112;11.662;2023-02-26T05:39:10;1.60;;;0.90;;
31378;SDS011;61664;48.112;11.662;2023-02-26T05:41:37;2.28;;;0.98;;
31378;SDS011;61664;48.112;11.662;2023-02-26T05:44:04;0.95;;;0.85;;
31378;SDS011;61664;48.112;11.662;2023-02-26T05:46:33;1.10;;;1.00;;
31378;SDS011;61664;48.112;11.662;2023-02-26T05:49:00;2.13;;;1.42;;
31378;SDS011;61664;48.112;11.662;2023-02-26T05:51:27;12.18;;;6.97;;
31378;SDS011;61664;48.112;11.662;2023-02-26T05:53:54;14.07;;;6.25;;
31378;SDS011;61664;48.112;11.662;2023-02-26T05:56:21;6.75;;;2.70;;
31378;SDS011;61664;48.112;11.662;2023-02-26T05:58:48;6.03;;;2.00;;
31378;SDS011;61664;48.112;11.662;2023-02-26T06:01:15;2.88;;;1.30;;
31378;SDS011;61664;48.112;11.662;2023-02-26T06:03:42;1.02;;;0.93;;
31378;SDS011;61664;48.112;11.662;2023-02-26T06:06:10;1.20;;;1.10;;
31378;SDS011;61664;48.112;11.662;2023-02-26T06:08:43;1.90;;;1.20;;
31378;SDS011;61664;48.112;11.662;2023-02-26T06:11:11;1.70;;;1.30;;
31378;SDS011;61664;48.112;11.662;2023-02-26T06:13:38;2.50;;;1.23;;
31378;SDS011;61664;48.112;11.662;2023-02-26T06:16:06;1.45;;;1.10;;
31378;SDS011;61664;48.112;11.662;2023-02-26T06:18:32;2.45;;;1.08;;
31378;SDS011;61664;48.112;11.662;2023-02-26T06:21:00;1.20;;;1.10;;
31378;SDS011;61664;48.112;11.662;2023-02-26T06:23:27;0.77;;;0.77;;
31378;SDS011;61664;48.112;11.662;2023-02-26T06:25:54;1.05;;;0.90;;
31378;SDS011;61664;48.112;11.662;2023-02-26T06:28:21;2.60;;;1.00;;
31378;SDS011;61664;48.112;11.662;2023-02-26T06:30:50;2.95;;;1.02;;
31378;SDS011;61664;48.112;11.662;2023-02-26T06:33:18;0.75;;;0.70;;
31378;SDS011;61664;48.112;11.662;2023-02-26T06:35:46;1.02;;;1.00;;
31378;SDS011;61664;48.112;11.662;2023-02-26T06:38:13;2.08;;;1.30;;
31378;SDS011;61664;48.112;11.662;2023-02-26T06:40:40;1.60;;;1.27;;
31378;SDS011;61664;48.112;11.662;2023-02-26T06:43:07;1.45;;;1.00;;
31378;SDS011;61664;48.112;11.662;2023-02-26T06:45:34;1.15;;;1.00;;
31378;SDS011;61664;48.112;11.662;2023-02-26T06:48:01;1.10;;;0.90;;
31378;SDS011;61664;48.112;11.662;2023-02-26T06:50:28;1.20;;;1.10;;
31378;SDS011;61664;48.112;11.662;2023-02-26T06:52:56;0.80;;;0.80;;
31378;SDS011;61664;48.112;11.662;2023-02-26T06:55:23;2.08;;;1.25;;
31378;SDS011;61664;48.112;11.662;2023-02-26T06:57:53;1.52;;;0.80;;
31378;SDS011;61664;48.112;11.662;2023-02-26T07:00:21;2.53;;;0.95;;
31378;SDS011;61664;48.112;11.662;2023-02-26T07:02:49;2.58;;;1.02;;
31378;SDS011;61664;48.112;11.662;2023-02-26T07:05:17;1.58;;;0.98;;
31378;SDS011;61664;48.112;11.662;2023-02-26T07:07:44;1.77;;;1.05;;
31378;SDS011;61664;48.112;11.662;2023-02-26T07:10:11;1.13;;;1.02;;
31378;SDS011;61664;48.112;11.662;2023-02-26T07:12:38;1.83;;;1.08;;
31378;SDS011;61664;48.112;11.662;2023-02-26T07:15:05;2.90;;;1.10;;
31378;SDS011;61664;48.112;11.662;2023-02-26T07:17:33;2.38;;;0.77;;
31378;SDS011;61664;48.112;11.662;2023-02-26T07:20:00;3.40;;;1.75;;
31378;SDS011;61664;48.112;11.662;2023-02-26T07:22:31;3.03;;;2.30;;
31378;SDS011;61664;48.112;11.662;2023-02-26T07:24:59;3.20;;;1.70;;
31378;SDS011;61664;48.112;11.662;2023-02-26T07:27:25;2.38;;;1.50;;
31378;SDS011;61664;48.112;11.662;2023-02-26T07:29:55;2.40;;;1.85;;
31378;SDS011;61664;48.112;11.662;2023-02-26T07:32:22;2.85;;;1.85;;
31378;SDS011;61664;48.112;11.662;2023-02-26T07:34:49;2.85;;;1.40;;
31378;SDS011;61664;48.112;11.662;2023-02-26T07:37:16;1.67;;;1.50;;
31378;SDS011;61664;48.112;11.662;2023-02-26T07:39:44;2.65;;;1.52;;
31378;SDS011;61664;48.112;11.662;2023-02-26T07:42:11;1.92;;;1.65;;
31378;SDS011;61664;48.112;11.662;2023-02-26T07:44:38;2.10;;;1.70;;
31378;SDS011;61664;48.112;11.662;2023-02-26T07:47:05;3.30;;;1.70;;
31378;SDS011;61664;48.112;11.662;2023-02-26T07:49:32;1.52;;;1.42;;
31378;SDS011;61664;48.112;11.662;2023-02-26T07:51:59;1.08;;;1.02;;
31378;SDS011;61664;48.112;11.662;2023-02-26T07:54:27;2.55;;;1.55;;
31378;SDS011;61664;48.112;11.662;2023-02-26T07:56:54;3.50;;;1.10;;
31378;SDS011;61664;48.112;11.662;2023-02-26T07:59:21;1.40;;;1.05;;
31378;SDS011;61664;48.112;11.662;2023-02-26T08:01:48;1.20;;;1.10;;
31378;SDS011;61664;48.112;11.662;2023-02-26T08:04:15;2.00;;;1.40;;
31378;SDS011;61664;48.112;11.662;2023-02-26T08:06:42;2.00;;;1.10;;
31378;SDS011;61664;48.112;11.662;2023-02-26T08:09:08;1.63;;;1.42;;
31378;SDS011;61664;48.112;11.662;2023-02-26T08:11:35;1.77;;;1.63;;
31378;SDS011;61664;48.112;11.662;2023-02-26T08:14:05;5.80;;;2.47;;
31378;SDS011;61664;48.112;11.662;2023-02-26T08:16:32;1.85;;;1.17;;
31378;SDS011;61664;48.112;11.662;2023-02-26T08:18:59;1.20;;;1.10;;
31378;SDS011;61664;48.112;11.662;2023-02-26T08:21:26;2.42;;;1.08;;
31378;SDS011;61664;48.112;11.662;2023-02-26T08:23:53;1.30;;;1.20;;
31378;SDS011;61664;48.112;11.662;2023-02-26T08:26:20;1.23;;;1.13;;
31378;SDS011;61664;48.112;11.662;2023-02-26T08:28:47;2.30;;;1.17;;
31378;SDS011;61664;48.112;11.662;2023-02-26T08:31:14;1.17;;;1.17;;
31378;SDS011;61664;48.112;11.662;2023-02-26T08:33:42;2.25;;;1.13;;
31378;SDS011;61664;48.112;11.662;2023-02-26T08:36:09;2.75;;;1.40;;
31378;SDS011;61664;48.112;11.662;2023-02-26T08:38:37;1.33;;;1.10;;
31378;SDS011;61664;48.112;11.662;2023-02-26T08:41:04;1.33;;;1.23;;
31378;SDS011;61664;48.112;11.662;2023-02-26T08:43:31;1.30;;;1.20;;
31378;SDS011;61664;48.112;11.662;2023-02-26T08:45:58;1.52;;;1.40;;
31378;SDS011;61664;48.112;11.662;2023-02-26T08:48:25;1.48;;;1.23;;
31378;SDS011;61664;48.112;11.662;2023-02-26T08:50:52;2.65;;;1.67;;
31378;SDS011;61664;48.112;11.662;2023-02-26T08:53:19;1.35;;;1.25;;
31378;SDS011;61664;48.112;11.662;2023-02-26T08:55:47;2.20;;;1.42;;
31378;SDS011;61664;48.112;11.662;2023-02-26T08:58:17;1.98;;;1.40;;
31378;SDS011;61664;48.112;11.662;2023-02-26T09:00:45;1.63;;;1.52;;
31378;SDS011;61664;48.112;11.662;2023-02-26T09:03:12;1.52;;;1.30;;
31378;SDS011;61664;48.112;11.662;2023-02-26T09:05:40;2.22;;;2.10;;
31378;SDS011;61664;48.112;11.662;2023-02-26T09:08:07;1.52;;;1.40;;
31378;SDS011;61664;48.112;11.662;2023-02-26T09:10:36;1.75;;;1.65;;
31378;SDS011;61664;48.112;11.662;2023-02-26T09:13:06;1.70;;;1.58;;
31378;SDS011;61664;48.112;11.662;2023-02-26T09:15:34;1.40;;;1.25;;
31378;SDS011;61664;48.112;11.662;2023-02-26T09:18:00;1.75;;;1.65;;
31378;SDS011;61664;48.112;11.662;2023-02-26T09:20:27;2.28;;;1.48;;
31378;SDS011;61664;48.112;11.662;2023-02-26T09:22:54;2.00;;;1.90;;
31378;SDS011;61664;48.112;11.662;2023-02-26T09:25:21;1.65;;;1.55;;
31378;SDS011;61664;48.112;11.662;2023-02-26T09:27:49;1.65;;;1.55;;
31378;SDS011;61664;48.112;11.662;2023-02-26T09:30:16;1.42;;;1.33;;
31378;SDS011;61664;48.112;11.662;2023-02-26T09:32:43;1.80;;;1.70;;
31378;SDS011;61664;48.112;11.662;2023-02-26T09:35:10;1.83;;;1.73;;
31378;SDS011;61664;48.112;11.662;2023-02-26T09:37:37;2.13;;;2.00;;
31378;SDS011;61664;48.112;11.662;2023-02-26T09:40:05;2.05;;;1.95;;
31378;SDS011;61664;48.112;11.662;2023-02-26T09:48:02;1.95;;;1.85;;
31378;SDS011;61664;48.112;11.662;2023-02-26T09:50:36;2.30;;;2.10;;
31378;SDS011;61664;48.112;11.662;2023-02-26T09:53:18;2.63;;;1.77;;
31378;SDS011;61664;48.112;11.662;2023-02-26T09:56:07;2.03;;;1.67;;
31378;SDS011;61664;48.112;11.662;2023-02-26T09:58:44;5.25;;;1.60;;
31378;SDS011;61664;48.112;11.662;2023-02-26T10:07:32;1.40;;;1.30;;
31378;SDS011;61664;48.112;11.662;2023-02-26T10:10:30;2.13;;;1.80;;
31378;SDS011;61664;48.112;11.662;2023-02-26T10:16:24;2.25;;;2.05;;
31378;SDS011;61664;48.112;11.662;2023-02-26T10:19:18;3.25;;;2.05;;
31378;SDS011;61664;48.112;11.662;2023-02-26T10:24:53;2.08;;;1.98;;
31378;SDS011;61664;48.112;11.662;2023-02-26T10:27:39;4.15;;;2.17;;
31378;SDS011;61664;48.112;11.662;2023-02-26T10:35:46;3.00;;;2.13;;
31378;SDS011;61664;48.112;11.662;2023-02-26T10:38:26;2.28;;;2.17;;
31378;SDS011;61664;48.112;11.662;2023-02-26T10:40:58;2.13;;;2.03;;
31378;SDS011;61664;48.112;11.662;2023-02-26T10:43:34;2.47;;;2.28;;
31378;SDS011;61664;48.112;11.662;2023-02-26T10:49:34;1.83;;;1.73;;
31378;SDS011;61664;48.112;11.662;2023-02-26T10:52:20;2.20;;;2.00;;
31378;SDS011;61664;48.112;11.662;2023-02-26T10:57:36;2.28;;;2.17;;
31378;SDS011;61664;48.112;11.662;2023-02-26T11:00:17;3.17;;;2.88;;
31378;SDS011;61664;48.112;11.662;2023-02-26T11:02:47;18.42;;;8.80;;
31378;SDS011;61664;48.112;11.662;2023-02-26T11:05:19;11.80;;;7.07;;
31378;SDS011;61664;48.112;11.662;2023-02-26T11:07:54;9.02;;;5.93;;
31378;SDS011;61664;48.112;11.662;2023-02-26T11:10:46;7.22;;;5.63;;
31378;SDS011;61664;48.112;11.662;2023-02-26T11:13:23;8.40;;;5.50;;
31378;SDS011;61664;48.112;11.662;2023-02-26T11:15:53;5.03;;;4.05;;
31378;SDS011;61664;48.112;11.662;2023-02-26T11:18:28;4.30;;;3.50;;
31378;SDS011;61664;48.112;11.662;2023-02-26T11:21:24;5.25;;;4.20;;
31378;SDS011;61664;48.112;11.662;2023-02-26T11:24:03;4.85;;;4.32;;
31378;SDS011;61664;48.112;11.662;2023-02-26T11:26:41;3.15;;;2.95;;
31378;SDS011;61664;48.112;11.662;2023-02-26T11:29:14;12.65;;;8.80;;
31378;SDS011;61664;48.112;11.662;2023-02-26T11:32:03;5.00;;;4.50;;
31378;SDS011;61664;48.112;11.662;2023-02-26T11:34:32;9.27;;;6.13;;
31378;SDS011;61664;48.112;11.662;2023-02-26T11:37:01;6.85;;;5.28;;
31378;SDS011;61664;48.112;11.662;2023-02-26T11:39:32;8.43;;;5.35;;
31378;SDS011;61664;48.112;11.662;2023-02-26T11:42:03;12.75;;;7.32;;
31378;SDS011;61664;48.112;11.662;2023-02-26T11:44:34;12.95;;;6.13;;
31378;SDS011;61664;48.112;11.662;2023-02-26T11:47:14;6.63;;;4.78;;
31378;SDS011;61664;48.112;11.662;2023-02-26T11:49:50;8.38;;;7.47;;
31378;SDS011;61664;48.112;11.662;2023-02-26T11:52:40;6.28;;;5.10;;
31378;SDS011;61664;48.112;11.662;2023-02-26T11:55:19;5.03;;;4.50;;
31378;SDS011;61664;48.112;11.662;2023-02-26T11:57:58;5.57;;;4.25;;
31378;SDS011;61664;48.112;11.662;2023-02-26T12:00:38;6.90;;;4.53;;
31378;SDS011;61664;48.112;11.662;2023-02-26T12:03:06;8.00;;;5.13;;
31378;SDS011;61664;48.112;11.662;2023-02-26T12:05:41;7.15;;;5.20;;
31378;SDS011;61664;48.112;11.662;2023-02-26T12:08:25;4.35;;;3.70;;
31378;SDS011;61664;48.112;11.662;2023-02-26T12:14:39;3.33;;;3.13;;
31378;SDS011;61664;48.112;11.662;2023-02-26T12:34:36;1.63;;;1.52;;
31378;SDS011;61664;48.112;11.662;2023-02-26T12:43:31;4.45;;;3.53;;
31378;SDS011;61664;48.112;11.662;2023-02-26T12:46:18;4.05;;;3.65;;
31378;SDS011;61664;48.112;11.662;2023-02-26T12:49:19;3.72;;;3.03;;
31378;SDS011;61664;48.112;11.662;2023-02-26T12:55:29;8.80;;;2.80;;
31378;SDS011;61664;48.112;11.662;2023-02-26T12:58:16;3.35;;;3.05;;
31378;SDS011;61664;48.112;11.662;2023-02-26T13:21:47;1.67;;;1.58;;
31378;SDS011;61664;48.112;11.662;2023-02-26T13:27:03;1.73;;;1.63;;
31378;SDS011;61664;48.112;11.662;2023-02-26T13:29:36;1.58;;;1.48;;
31378;SDS011;61664;48.112;11.662;2023-02-26T13:32:31;1.33;;;1.33;;
31378;SDS011;61664;48.112;11.662;2023-02-26T13:35:16;1.30;;;1.25;;
31378;SDS011;61664;48.112;11.662;2023-02-26T13:37:55;1.15;;;1.05;;
31378;SDS011;61664;48.112;11.662;2023-02-26T13:53:04;0.93;;;0.93;;
31378;SDS011;61664;48.112;11.662;2023-02-26T13:56:13;1.50;;;1.40;;
31378;SDS011;61664;48.112;11.662;2023-02-26T13:58:54;1.55;;;1.45;;
31378;SDS011;61664;48.112;11.662;2023-02-26T14:01:54;1.90;;;1.80;;
31378;SDS011;61664;48.112;11.662;2023-02-26T14:04:52;2.17;;;2.08;;
31378;SDS011;61664;48.112;11.662;2023-02-26T14:10:16;0.95;;;0.95;;
31378;SDS011;61664;48.112;11.662;2023-02-26T14:13:17;3.60;;;1.50;;
31378;SDS011;61664;48.112;11.662;2023-02-26T14:16:00;1.00;;;0.98;;
31378;SDS011;61664;48.112;11.662;2023-02-26T14:21:56;1.40;;;0.90;;
31378;SDS011;61664;48.112;11.662;2023-02-26T14:24:44;1.42;;;1.33;;
31378;SDS011;61664;48.112;11.662;2023-02-26T14:27:38;1.45;;;1.35;;
31378;SDS011;61664;48.112;11.662;2023-02-26T14:32:53;1.30;;;1.20;;
31378;SDS011;61664;48.112;11.662;2023-02-26T14:35:27;1.25;;;1.20;;
31378;SDS011;61664;48.112;11.662;2023-02-26T14:40:45;1.58;;;1.48;;
31378;SDS011;61664;48.112;11.662;2023-02-26T14:46:02;1.67;;;1.58;;
31378;SDS011;61664;48.112;11.662;2023-02-26T14:48:32;2.10;;;1.90;;
31378;SDS011;61664;48.112;11.662;2023-02-26T14:51:04;1.30;;;1.20;;
31378;SDS011;61664;48.112;11.662;2023-02-26T15:02:44;1.48;;;1.25;;
31378;SDS011;61664;48.112;11.662;2023-02-26T15:08:35;1.25;;;1.15;;
31378;SDS011;61664;48.112;11.662;2023-02-26T15:11:52;0.93;;;0.90;;
31378;SDS011;61664;48.112;11.662;2023-02-26T15:26:07;1.42;;;1.33;;
31378;SDS011;61664;48.112;11.662;2023-02-26T15:28:45;1.70;;;1.60;;
31378;SDS011;61664;48.112;11.662;2023-02-26T15:31:14;1.98;;;1.88;;
31378;SDS011;61664;48.112;11.662;2023-02-26T15:33:48;2.33;;;2.17;;
31378;SDS011;61664;48.112;11.662;2023-02-26T15:36:18;2.03;;;1.92;;
31378;SDS011;61664;48.112;11.662;2023-02-26T15:38:48;2.50;;;1.85;;
31378;SDS011;61664;48.112;11.662;2023-02-26T15:41:28;1.80;;;1.70;;
31378;SDS011;61664;48.112;11.662;2023-02-26T15:44:04;2.40;;;2.20;;
31378;SDS011;61664;48.112;11.662;2023-02-26T15:46:41;1.65;;;1.55;;
31378;SDS011;61664;48.112;11.662;2023-02-26T15:49:34;2.78;;;2.03;;
31378;SDS011;61664;48.112;11.662;2023-02-26T15:52:04;3.10;;;2.60;;
31378;SDS011;61664;48.112;11.662;2023-02-26T15:54:40;2.05;;;1.92;;
31378;SDS011;61664;48.112;11.662;2023-02-26T15:57:15;2.20;;;2.00;;
31378;SDS011;61664;48.112;11.662;2023-02-26T15:59:45;2.05;;;1.90;;
31378;SDS011;61664;48.112;11.662;2023-02-26T16:02:19;1.90;;;1.80;;
31378;SDS011;61664;48.112;11.662;2023-02-26T16:04:51;1.65;;;1.55;;
31378;SDS011;61664;48.112;11.662;2023-02-26T16:07:18;2.95;;;2.45;;
31378;SDS011;61664;48.112;11.662;2023-02-26T16:09:47;1.70;;;1.60;;
31378;SDS011;61664;48.112;11.662;2023-02-26T16:12:23;1.88;;;1.77;;
31378;SDS011;61664;48.112;11.662;2023-02-26T16:15:05;1.73;;;1.63;;
31378;SDS011;61664;48.112;11.662;2023-02-26T16:17:39;2.03;;;1.83;;
31378;SDS011;61664;48.112;11.662;2023-02-26T16:20:12;1.55;;;1.45;;
31378;SDS011;61664;48.112;11.662;2023-02-26T16:22:48;2.05;;;1.90;;
31378;SDS011;61664;48.112;11.662;2023-02-26T16:26:00;1.70;;;1.58;;
31378;SDS011;61664;48.112;11.662;2023-02-26T16:28:32;2.72;;;2.42;;
31378;SDS011;61664;48.112;11.662;2023-02-26T16:31:10;2.17;;;1.98;;
31378;SDS011;61664;48.112;11.662;2023-02-26T16:33:52;1.30;;;1.20;;
31378;SDS011;61664;48.112;11.662;2023-02-26T16:36:24;1.70;;;1.60;;
31378;SDS011;61664;48.112;11.662;2023-02-26T16:41:34;1.98;;;1.80;;
31378;SDS011;61664;48.112;11.662;2023-02-26T16:46:57;2.25;;;1.25;;
31378;SDS011;61664;48.112;11.662;2023-02-26T16:49:31;8.50;;;5.10;;
31378;SDS011;61664;48.112;11.662;2023-02-26T16:52:01;5.47;;;3.47;;
31378;SDS011;61664;48.112;11.662;2023-02-26T16:54:34;3.15;;;2.13;;
31378;SDS011;61664;48.112;11.662;2023-02-26T16:59:42;2.08;;;1.98;;
31378;SDS011;61664;48.112;11.662;2023-02-26T17:02:22;1.95;;;1.85;;
31378;SDS011;61664;48.112;11.662;2023-02-26T17:04:56;1.45;;;1.35;;
31378;SDS011;61664;48.112;11.662;2023-02-26T17:07:32;1.40;;;1.30;;
31378;SDS011;61664;48.112;11.662;2023-02-26T17:10:23;1.38;;;1.27;;
31378;SDS011;61664;48.112;11.662;2023-02-26T17:13:02;1.20;;;1.20;;
31378;SDS011;61664;48.112;11.662;2023-02-26T17:15:41;1.77;;;1.67;;
31378;SDS011;61664;48.112;11.662;2023-02-26T17:18:12;1.70;;;1.60;;
31378;SDS011;61664;48.112;11.662;2023-02-26T17:20:39;2.08;;;1.88;;
31378;SDS011;61664;48.112;11.662;2023-02-26T17:23:07;1.85;;;1.75;;
31378;SDS011;61664;48.112;11.662;2023-02-26T17:25:36;1.58;;;1.48;;
31378;SDS011;61664;48.112;11.662;2023-02-26T17:28:14;1.60;;;1.50;;
31378;SDS011;61664;48.112;11.662;2023-02-26T17:30:51;1.67;;;1.58;;
31378;SDS011;61664;48.112;11.662;2023-02-26T17:33:20;2.20;;;2.00;;
31378;SDS011;61664;48.112;11.662;2023-02-26T17:35:47;2.28;;;1.67;;
31378;SDS011;61664;48.112;11.662;2023-02-26T17:38:15;2.45;;;1.92;;
31378;SDS011;61664;48.112;11.662;2023-02-26T17:40:43;3.60;;;3.10;;
31378;SDS011;61664;48.112;11.662;2023-02-26T17:43:12;2.63;;;2.42;;
31378;SDS011;61664;48.112;11.662;2023-02-26T17:45:39;1.73;;;1.63;;
31378;SDS011;61664;48.112;11.662;2023-02-26T17:48:07;1.50;;;1.40;;
31378;SDS011;61664;48.112;11.662;2023-02-26T17:50:55;1.48;;;1.38;;
31378;SDS011;61664;48.112;11.662;2023-02-26T17:53:23;1.40;;;1.30;;
31378;SDS011;61664;48.112;11.662;2023-02-26T17:55:58;1.20;;;1.10;;
31378;SDS011;61664;48.112;11.662;2023-02-26T17:58:29;1.50;;;1.40;;
31378;SDS011;61664;48.112;11.662;2023-02-26T18:00:59;1.50;;;1.40;;
31378;SDS011;61664;48.112;11.662;2023-02-26T18:03:29;1.50;;;1.40;;
31378;SDS011;61664;48.112;11.662;2023-02-26T18:05:56;1.35;;;1.25;;
31378;SDS011;61664;48.112;11.662;2023-02-26T18:08:25;1.20;;;1.10;;
31378;SDS011;61664;48.112;11.662;2023-02-26T18:10:56;1.30;;;1.20;;
31378;SDS011;61664;48.112;11.662;2023-02-26T18:13:25;1.13;;;1.02;;
31378;SDS011;61664;48.112;11.662;2023-02-26T18:15:53;1.30;;;1.20;;
31378;SDS011;61664;48.112;11.662;2023-02-26T18:18:23;1.40;;;1.30;;
31378;SDS011;61664;48.112;11.662;2023-02-26T18:20:51;4.90;;;3.15;;
31378;SDS011;61664;48.112;11.662;2023-02-26T18:23:19;25.50;;;9.52;;
31378;SDS011;61664;48.112;11.662;2023-02-26T18:25:47;31.88;;;11.90;;
31378;SDS011;61664;48.112;11.662;2023-02-26T18:28:25;15.48;;;5.95;;
31378;SDS011;61664;48.112;11.662;2023-02-26T18:30:54;4.10;;;2.78;;
31378;SDS011;61664;48.112;11.662;2023-02-26T18:33:23;2.85;;;2.38;;
31378;SDS011;61664;48.112;11.662;2023-02-26T18:35:52;3.58;;;2.05;;